Monatstabelle

Bitte in den Auwahlmenüs den gewünschte Zeiraum wählen und die Schaltfläche "Anfrage absenden" betätigen. Beginn der Aufzeichnung ist 2007 - Dezember. Vor diesem Zeitraum sind keine Daten verfügbar.

2017 - Mai

 

Datum Temperatur (°C) Luftdruck (hPa) Luftfeuchte (%) Regen
(l/m²)
Wind (km/h)
avg: min: max: avg: min: max: avg: min: max: avg: max:
01.05.2017 12,4 9,3 17,9 1011,2 1010,2 1013,6 63 45 78 0,0 8,5 17,9
02.05.2017 10,9 6,8 17,4 1015,6 1011,2 1017,4 75 56 89 2,6 1,9 11,7
03.05.2017 8,6 4,0 13,3 1015,8 1013,9 1017,5 89 83 92 2,2 1,4 4,3
04.05.2017 11,0 4,7 18,4 1012,8 1011,3 1014,5 86 61 93 2,7 2,2 15,8
05.05.2017 11,0 6,7 15,5 1015,0 1011,6 1015,9 81 65 93 0,1 2,8 11,6
06.05.2017 16,0 6,5 23,3 1009,3 1005,6 1015,7 60 40 92 0,0 5,5 13,8
07.05.2017 14,5 7,9 19,7 1008,7 1004,8 1009,9 70 54 87 0,4 7,0 18,3
08.05.2017 12,7 9,9 19,2 1009,9 1008,4 1011,4 79 51 88 3,3 1,8 21,4
09.05.2017 6,1 2,8 10,0 1013,2 1010,9 1014,3 85 72 89 5,1 2,4 17,7
10.05.2017 11,1 -1,3 16,9 1009,7 1006,9 1014,4 63 44 92 0,0 7,3 10,8
11.05.2017 16,2 3,8 24,7 1004,1 1000,9 1007,8 61 38 90 0,0 5,9 13,0
12.05.2017 15,6 12,0 24,7 1004,5 1000,8 1005,9 79 44 88 3,2 3,7 12,6
13.05.2017 16,6 9,6 23,6 1011,5 1005,7 1014,4 71 47 93 0,0 3,8 14,3
14.05.2017 17,6 9,3 25,3 1019,3 1014,3 1021,7 73 43 91 0,8 4,9 16,7
15.05.2017 16,3 12,6 21,5 1024,8 1021,4 1026,2 73 55 91 0,7 2,0 15,4
16.05.2017 16,9 9,6 23,7 1025,5 1023,9 1028,0 69 44 91 0,0 3,0 16,1
17.05.2017 17,0 12,2 23,7 1021,5 1019,0 1025,5 61 41 85 0,0 2,8 7,6
18.05.2017 21,3 13,2 26,5 1013,9 1012,4 1019,0 47 37 64 0,0 12,0 18,2
19.05.2017 22,4 16,3 27,9 1009,2 1008,1 1012,4 46 30 63 0,0 12,0 17,9
20.05.2017 15,3 13,4 18,3 1016,3 1010,8 1018,6 59 47 68 0,0 13,0 20,8
21.05.2017 13,3 9,9 17,3 1020,4 1018,6 1022,2 78 64 89 16,3 5,1 18,8
22.05.2017 16,8 8,2 23,5 1016,4 1015,1 1020,1 73 48 92 0,0 3,5 12,1
23.05.2017 17,8 13,3 23,9 1015,4 1013,6 1016,3 73 51 90 4,1 4,2 15,0
24.05.2017 14,8 11,2 19,5 1015,9 1013,9 1017,9 81 55 88 4,9 1,9 16,6
25.05.2017 12,7 8,0 17,8 1018,0 1017,0 1019,4 74 56 92 1,0 4,2 18,5
26.05.2017 15,8 7,0 22,5 1017,2 1016,0 1019,4 70 47 91 0,0 4,7 17,1
avg. 14,6 1014,4 71   ---
  Summe Regen: 47,5  
 
Min-Datum 10.05.2017 12.05.2017 19.05.2017 --- ---
Min-Zeit 05:24 02:34 15:44 --- ---
Minimum -1,3 1000,8 30 --- ---
 

Max-Datum

19.05.2017 16.05.2017 04.05.2017 21.05.2017 08.05.2017
Max-Zeit 15:08 08:14 03:26 03:44 13:34
Maximum 27,9 1028,0 93 16,3 21,4
 

 

  Letztes Jahr
gleiches Monat
Eistage max < 0°C 0 0
Frosttage min < 0°C 1 0
Sommertage max >=25°C 3 5
Heiße Tage max >=30°C 0 0

 

<<< nach oben >>>